sensor_id;sensor_type;location;lat;lon;timestamp;P1;durP1;ratioP1;P2;durP2;ratioP2
32321;SDS011;61553;48.994;8.940;2022-09-09T00:07:20;4.30;;;1.77;;
32321;SDS011;61553;48.994;8.940;2022-09-09T00:10:09;6.93;;;1.90;;
32321;SDS011;61553;48.994;8.940;2022-09-09T00:12:56;3.97;;;1.60;;
32321;SDS011;61553;48.994;8.940;2022-09-09T00:18:45;6.88;;;1.50;;
32321;SDS011;61553;48.994;8.940;2022-09-09T00:27:16;4.18;;;1.40;;
32321;SDS011;61553;48.994;8.940;2022-09-09T00:29:53;7.43;;;1.80;;
32321;SDS011;61553;48.994;8.940;2022-09-09T00:32:22;5.22;;;1.85;;
32321;SDS011;61553;48.994;8.940;2022-09-09T00:35:00;3.38;;;1.40;;
32321;SDS011;61553;48.994;8.940;2022-09-09T00:37:43;6.57;;;1.70;;
32321;SDS011;61553;48.994;8.940;2022-09-09T00:40:46;4.13;;;1.77;;
32321;SDS011;61553;48.994;8.940;2022-09-09T00:51:25;5.68;;;1.67;;
32321;SDS011;61553;48.994;8.940;2022-09-09T01:02:26;3.80;;;1.60;;
32321;SDS011;61553;48.994;8.940;2022-09-09T01:05:23;4.82;;;1.80;;
32321;SDS011;61553;48.994;8.940;2022-09-09T01:07:55;6.63;;;2.00;;
32321;SDS011;61553;48.994;8.940;2022-09-09T01:10:41;4.75;;;1.88;;
32321;SDS011;61553;48.994;8.940;2022-09-09T01:13:16;3.78;;;1.77;;
32321;SDS011;61553;48.994;8.940;2022-09-09T01:15:59;4.82;;;1.88;;
32321;SDS011;61553;48.994;8.940;2022-09-09T01:18:37;4.15;;;1.80;;
32321;SDS011;61553;48.994;8.940;2022-09-09T01:26:49;4.93;;;1.67;;
32321;SDS011;61553;48.994;8.940;2022-09-09T01:29:17;3.63;;;1.45;;
32321;SDS011;61553;48.994;8.940;2022-09-09T01:34:35;5.82;;;1.90;;
32321;SDS011;61553;48.994;8.940;2022-09-09T01:37:07;7.55;;;2.03;;
32321;SDS011;61553;48.994;8.940;2022-09-09T01:39:34;6.60;;;1.60;;
32321;SDS011;61553;48.994;8.940;2022-09-09T01:42:02;3.67;;;1.50;;
32321;SDS011;61553;48.994;8.940;2022-09-09T01:44:29;3.85;;;1.88;;
32321;SDS011;61553;48.994;8.940;2022-09-09T01:46:56;4.55;;;1.55;;
32321;SDS011;61553;48.994;8.940;2022-09-09T01:49:21;3.90;;;1.83;;
32321;SDS011;61553;48.994;8.940;2022-09-09T01:51:51;5.93;;;1.80;;
32321;SDS011;61553;48.994;8.940;2022-09-09T01:54:23;5.47;;;1.60;;
32321;SDS011;61553;48.994;8.940;2022-09-09T02:05:11;5.18;;;1.60;;
32321;SDS011;61553;48.994;8.940;2022-09-09T02:08:03;9.10;;;2.45;;
32321;SDS011;61553;48.994;8.940;2022-09-09T02:13:13;6.53;;;1.42;;
32321;SDS011;61553;48.994;8.940;2022-09-09T02:15:55;4.30;;;1.63;;
32321;SDS011;61553;48.994;8.940;2022-09-09T02:18:57;6.50;;;1.63;;
32321;SDS011;61553;48.994;8.940;2022-09-09T02:21:30;6.93;;;1.90;;
32321;SDS011;61553;48.994;8.940;2022-09-09T02:24:00;3.45;;;1.48;;
32321;SDS011;61553;48.994;8.940;2022-09-09T02:26:29;4.72;;;1.77;;
32321;SDS011;61553;48.994;8.940;2022-09-09T02:28:58;6.20;;;1.63;;
32321;SDS011;61553;48.994;8.940;2022-09-09T02:31:26;4.00;;;1.58;;
32321;SDS011;61553;48.994;8.940;2022-09-09T02:33:57;4.50;;;1.60;;
32321;SDS011;61553;48.994;8.940;2022-09-09T02:36:26;7.93;;;2.42;;
32321;SDS011;61553;48.994;8.940;2022-09-09T02:38:58;6.90;;;1.70;;
32321;SDS011;61553;48.994;8.940;2022-09-09T02:41:32;4.80;;;1.92;;
32321;SDS011;61553;48.994;8.940;2022-09-09T02:43:59;6.40;;;2.00;;
32321;SDS011;61553;48.994;8.940;2022-09-09T02:49:48;6.85;;;2.22;;
32321;SDS011;61553;48.994;8.940;2022-09-09T02:52:15;7.40;;;2.50;;
32321;SDS011;61553;48.994;8.940;2022-09-09T02:54:54;4.78;;;2.03;;
32321;SDS011;61553;48.994;8.940;2022-09-09T02:57:25;8.90;;;2.42;;
32321;SDS011;61553;48.994;8.940;2022-09-09T02:59:53;6.30;;;2.17;;
32321;SDS011;61553;48.994;8.940;2022-09-09T03:02:21;4.63;;;1.98;;
32321;SDS011;61553;48.994;8.940;2022-09-09T03:04:47;5.10;;;2.60;;
32321;SDS011;61553;48.994;8.940;2022-09-09T03:07:16;6.43;;;2.50;;
32321;SDS011;61553;48.994;8.940;2022-09-09T03:09:43;9.40;;;2.50;;
32321;SDS011;61553;48.994;8.940;2022-09-09T03:12:09;4.93;;;2.13;;
32321;SDS011;61553;48.994;8.940;2022-09-09T03:14:36;7.03;;;3.25;;
32321;SDS011;61553;48.994;8.940;2022-09-09T03:17:03;7.50;;;2.20;;
32321;SDS011;61553;48.994;8.940;2022-09-09T03:19:29;8.60;;;2.38;;
32321;SDS011;61553;48.994;8.940;2022-09-09T03:21:55;6.60;;;2.45;;
32321;SDS011;61553;48.994;8.940;2022-09-09T03:24:21;9.07;;;2.38;;
32321;SDS011;61553;48.994;8.940;2022-09-09T03:26:47;5.80;;;2.67;;
32321;SDS011;61553;48.994;8.940;2022-09-09T03:29:13;7.28;;;2.97;;
32321;SDS011;61553;48.994;8.940;2022-09-09T03:31:39;7.00;;;2.70;;
32321;SDS011;61553;48.994;8.940;2022-09-09T03:34:06;8.45;;;2.78;;
32321;SDS011;61553;48.994;8.940;2022-09-09T03:36:32;6.80;;;2.67;;
32321;SDS011;61553;48.994;8.940;2022-09-09T03:38:58;6.20;;;2.67;;
32321;SDS011;61553;48.994;8.940;2022-09-09T03:41:24;6.60;;;2.55;;
32321;SDS011;61553;48.994;8.940;2022-09-09T03:43:51;5.50;;;2.17;;
32321;SDS011;61553;48.994;8.940;2022-09-09T03:46:17;4.75;;;2.10;;
32321;SDS011;61553;48.994;8.940;2022-09-09T03:48:43;7.70;;;2.45;;
32321;SDS011;61553;48.994;8.940;2022-09-09T03:51:09;4.53;;;1.98;;
32321;SDS011;61553;48.994;8.940;2022-09-09T03:53:35;4.72;;;1.65;;
32321;SDS011;61553;48.994;8.940;2022-09-09T03:56:03;7.05;;;2.13;;
32321;SDS011;61553;48.994;8.940;2022-09-09T03:58:32;7.18;;;2.00;;
32321;SDS011;61553;48.994;8.940;2022-09-09T04:03:25;4.80;;;2.10;;
32321;SDS011;61553;48.994;8.940;2022-09-09T04:05:52;5.65;;;2.10;;
32321;SDS011;61553;48.994;8.940;2022-09-09T04:08:18;4.25;;;2.35;;
32321;SDS011;61553;48.994;8.940;2022-09-09T04:10:48;6.90;;;2.42;;
32321;SDS011;61553;48.994;8.940;2022-09-09T04:13:15;5.47;;;2.40;;
32321;SDS011;61553;48.994;8.940;2022-09-09T04:15:42;4.82;;;2.60;;
32321;SDS011;61553;48.994;8.940;2022-09-09T04:18:10;7.43;;;4.13;;
32321;SDS011;61553;48.994;8.940;2022-09-09T04:20:37;8.30;;;2.70;;
32321;SDS011;61553;48.994;8.940;2022-09-09T04:23:03;6.55;;;2.65;;
32321;SDS011;61553;48.994;8.940;2022-09-09T04:25:30;9.15;;;2.45;;
32321;SDS011;61553;48.994;8.940;2022-09-09T04:27:56;8.13;;;2.97;;
32321;SDS011;61553;48.994;8.940;2022-09-09T04:30:22;9.30;;;2.85;;
32321;SDS011;61553;48.994;8.940;2022-09-09T04:32:48;8.15;;;2.80;;
32321;SDS011;61553;48.994;8.940;2022-09-09T04:35:14;8.30;;;2.75;;
32321;SDS011;61553;48.994;8.940;2022-09-09T04:37:40;5.88;;;2.63;;
32321;SDS011;61553;48.994;8.940;2022-09-09T04:40:06;9.00;;;2.50;;
32321;SDS011;61553;48.994;8.940;2022-09-09T04:42:35;3.95;;;2.03;;
32321;SDS011;61553;48.994;8.940;2022-09-09T04:45:01;7.75;;;2.30;;
32321;SDS011;61553;48.994;8.940;2022-09-09T04:47:27;8.45;;;2.88;;
32321;SDS011;61553;48.994;8.940;2022-09-09T04:49:53;9.07;;;2.65;;
32321;SDS011;61553;48.994;8.940;2022-09-09T04:52:19;7.07;;;2.08;;
32321;SDS011;61553;48.994;8.940;2022-09-09T04:54:45;6.28;;;3.10;;
32321;SDS011;61553;48.994;8.940;2022-09-09T04:57:11;5.75;;;2.22;;
32321;SDS011;61553;48.994;8.940;2022-09-09T04:59:37;5.18;;;2.38;;
32321;SDS011;61553;48.994;8.940;2022-09-09T05:02:04;8.95;;;2.45;;
32321;SDS011;61553;48.994;8.940;2022-09-09T05:04:30;5.85;;;2.85;;
32321;SDS011;61553;48.994;8.940;2022-09-09T05:06:55;4.43;;;2.30;;
32321;SDS011;61553;48.994;8.940;2022-09-09T05:09:21;7.53;;;2.47;;
32321;SDS011;61553;48.994;8.940;2022-09-09T05:11:46;4.35;;;2.20;;
32321;SDS011;61553;48.994;8.940;2022-09-09T05:14:13;5.28;;;2.03;;
32321;SDS011;61553;48.994;8.940;2022-09-09T05:16:39;7.55;;;2.60;;
32321;SDS011;61553;48.994;8.940;2022-09-09T05:19:05;7.15;;;2.72;;
32321;SDS011;61553;48.994;8.940;2022-09-09T05:21:33;7.07;;;2.35;;
32321;SDS011;61553;48.994;8.940;2022-09-09T05:23:59;9.25;;;4.88;;
32321;SDS011;61553;48.994;8.940;2022-09-09T05:26:25;6.40;;;4.00;;
32321;SDS011;61553;48.994;8.940;2022-09-09T05:28:51;8.70;;;3.70;;
32321;SDS011;61553;48.994;8.940;2022-09-09T05:31:17;8.32;;;2.58;;
32321;SDS011;61553;48.994;8.940;2022-09-09T05:33:44;4.50;;;2.28;;
32321;SDS011;61553;48.994;8.940;2022-09-09T05:36:18;7.72;;;2.78;;
32321;SDS011;61553;48.994;8.940;2022-09-09T05:38:45;7.05;;;2.50;;
32321;SDS011;61553;48.994;8.940;2022-09-09T05:41:12;7.07;;;2.78;;
32321;SDS011;61553;48.994;8.940;2022-09-09T05:43:40;7.35;;;2.55;;
32321;SDS011;61553;48.994;8.940;2022-09-09T05:48:41;4.57;;;2.25;;
32321;SDS011;61553;48.994;8.940;2022-09-09T05:51:11;3.97;;;1.77;;
32321;SDS011;61553;48.994;8.940;2022-09-09T05:53:40;5.20;;;1.75;;
32321;SDS011;61553;48.994;8.940;2022-09-09T05:56:07;4.82;;;1.73;;
32321;SDS011;61553;48.994;8.940;2022-09-09T05:58:39;5.55;;;1.85;;
32321;SDS011;61553;48.994;8.940;2022-09-09T06:01:08;4.28;;;1.88;;
32321;SDS011;61553;48.994;8.940;2022-09-09T06:03:39;4.28;;;1.90;;
32321;SDS011;61553;48.994;8.940;2022-09-09T06:06:10;4.28;;;1.50;;
32321;SDS011;61553;48.994;8.940;2022-09-09T06:08:38;3.47;;;1.52;;
32321;SDS011;61553;48.994;8.940;2022-09-09T06:11:09;3.65;;;1.23;;
32321;SDS011;61553;48.994;8.940;2022-09-09T06:13:37;6.80;;;1.53;;
32321;SDS011;61553;48.994;8.940;2022-09-09T06:16:04;4.22;;;1.02;;
32321;SDS011;61553;48.994;8.940;2022-09-09T06:18:32;4.78;;;1.38;;
32321;SDS011;61553;48.994;8.940;2022-09-09T06:20:59;4.68;;;1.85;;
32321;SDS011;61553;48.994;8.940;2022-09-09T06:23:26;4.35;;;1.25;;
32321;SDS011;61553;48.994;8.940;2022-09-09T06:26:13;3.33;;;1.15;;
32321;SDS011;61553;48.994;8.940;2022-09-09T06:31:13;3.63;;;1.40;;
32321;SDS011;61553;48.994;8.940;2022-09-09T06:33:46;2.72;;;1.00;;
32321;SDS011;61553;48.994;8.940;2022-09-09T06:36:17;6.25;;;1.40;;
32321;SDS011;61553;48.994;8.940;2022-09-09T06:38:44;4.20;;;1.00;;
32321;SDS011;61553;48.994;8.940;2022-09-09T06:41:11;2.88;;;0.90;;
32321;SDS011;61553;48.994;8.940;2022-09-09T06:43:38;5.22;;;0.95;;
32321;SDS011;61553;48.994;8.940;2022-09-09T06:46:16;4.18;;;0.90;;
32321;SDS011;61553;48.994;8.940;2022-09-09T06:48:43;9.27;;;1.45;;
32321;SDS011;61553;48.994;8.940;2022-09-09T06:51:11;3.25;;;0.90;;
32321;SDS011;61553;48.994;8.940;2022-09-09T06:53:42;7.25;;;1.20;;
32321;SDS011;61553;48.994;8.940;2022-09-09T06:58:35;3.70;;;1.02;;
32321;SDS011;61553;48.994;8.940;2022-09-09T07:01:02;4.10;;;0.82;;
32321;SDS011;61553;48.994;8.940;2022-09-09T07:03:32;4.93;;;2.00;;
32321;SDS011;61553;48.994;8.940;2022-09-09T07:05:58;5.68;;;1.00;;
32321;SDS011;61553;48.994;8.940;2022-09-09T07:08:25;7.00;;;1.55;;
32321;SDS011;61553;48.994;8.940;2022-09-09T07:10:51;5.03;;;1.08;;
32321;SDS011;61553;48.994;8.940;2022-09-09T07:13:25;6.65;;;1.17;;
32321;SDS011;61553;48.994;8.940;2022-09-09T07:15:52;4.32;;;1.25;;
32321;SDS011;61553;48.994;8.940;2022-09-09T07:18:18;3.03;;;0.88;;
32321;SDS011;61553;48.994;8.940;2022-09-09T07:20:54;5.47;;;1.30;;
32321;SDS011;61553;48.994;8.940;2022-09-09T07:23:21;6.00;;;1.63;;
32321;SDS011;61553;48.994;8.940;2022-09-09T07:25:47;5.80;;;1.45;;
32321;SDS011;61553;48.994;8.940;2022-09-09T07:28:13;3.92;;;1.13;;
32321;SDS011;61553;48.994;8.940;2022-09-09T07:30:39;4.82;;;1.00;;
32321;SDS011;61553;48.994;8.940;2022-09-09T07:33:05;5.10;;;1.35;;
32321;SDS011;61553;48.994;8.940;2022-09-09T07:35:31;5.43;;;0.95;;
32321;SDS011;61553;48.994;8.940;2022-09-09T07:37:57;5.88;;;1.90;;
32321;SDS011;61553;48.994;8.940;2022-09-09T07:40:23;5.47;;;1.27;;
32321;SDS011;61553;48.994;8.940;2022-09-09T07:42:49;3.90;;;1.05;;
32321;SDS011;61553;48.994;8.940;2022-09-09T07:45:15;5.40;;;1.10;;
32321;SDS011;61553;48.994;8.940;2022-09-09T07:47:40;3.28;;;0.95;;
32321;SDS011;61553;48.994;8.940;2022-09-09T07:50:07;3.75;;;1.00;;
32321;SDS011;61553;48.994;8.940;2022-09-09T07:52:34;4.85;;;1.42;;
32321;SDS011;61553;48.994;8.940;2022-09-09T07:55:00;4.78;;;1.08;;
32321;SDS011;61553;48.994;8.940;2022-09-09T07:57:27;4.00;;;1.08;;
32321;SDS011;61553;48.994;8.940;2022-09-09T07:59:55;5.80;;;1.10;;
32321;SDS011;61553;48.994;8.940;2022-09-09T08:02:22;5.95;;;0.88;;
32321;SDS011;61553;48.994;8.940;2022-09-09T08:04:52;3.10;;;0.88;;
32321;SDS011;61553;48.994;8.940;2022-09-09T08:07:18;5.70;;;1.30;;
32321;SDS011;61553;48.994;8.940;2022-09-09T08:09:46;5.25;;;1.30;;
32321;SDS011;61553;48.994;8.940;2022-09-09T08:12:12;3.28;;;1.17;;
32321;SDS011;61553;48.994;8.940;2022-09-09T08:14:38;4.43;;;1.60;;
32321;SDS011;61553;48.994;8.940;2022-09-09T08:17:04;5.10;;;1.38;;
32321;SDS011;61553;48.994;8.940;2022-09-09T08:19:29;4.80;;;1.33;;
32321;SDS011;61553;48.994;8.940;2022-09-09T08:21:55;3.00;;;1.02;;
32321;SDS011;61553;48.994;8.940;2022-09-09T08:24:21;5.03;;;1.20;;
32321;SDS011;61553;48.994;8.940;2022-09-09T08:26:48;3.40;;;0.90;;
32321;SDS011;61553;48.994;8.940;2022-09-09T08:29:14;3.65;;;1.15;;
32321;SDS011;61553;48.994;8.940;2022-09-09T08:31:47;3.33;;;0.95;;
32321;SDS011;61553;48.994;8.940;2022-09-09T08:34:14;3.85;;;0.98;;
32321;SDS011;61553;48.994;8.940;2022-09-09T08:36:42;5.53;;;1.30;;
32321;SDS011;61553;48.994;8.940;2022-09-09T08:39:09;6.93;;;1.25;;
32321;SDS011;61553;48.994;8.940;2022-09-09T08:41:40;5.00;;;1.00;;
32321;SDS011;61553;48.994;8.940;2022-09-09T08:50:05;4.30;;;1.10;;
32321;SDS011;61553;48.994;8.940;2022-09-09T08:57:52;4.68;;;1.10;;
32321;SDS011;61553;48.994;8.940;2022-09-09T09:00:20;3.95;;;1.17;;
32321;SDS011;61553;48.994;8.940;2022-09-09T09:08:35;5.97;;;1.52;;
32321;SDS011;61553;48.994;8.940;2022-09-09T09:11:10;3.72;;;1.20;;
32321;SDS011;61553;48.994;8.940;2022-09-09T09:13:50;4.10;;;1.15;;
32321;SDS011;61553;48.994;8.940;2022-09-09T09:18:54;5.35;;;1.52;;
32321;SDS011;61553;48.994;8.940;2022-09-09T09:21:42;5.55;;;1.20;;
32321;SDS011;61553;48.994;8.940;2022-09-09T09:24:29;6.25;;;1.15;;
32321;SDS011;61553;48.994;8.940;2022-09-09T09:26:57;5.95;;;1.60;;
32321;SDS011;61553;48.994;8.940;2022-09-09T09:29:32;6.72;;;1.42;;
32321;SDS011;61553;48.994;8.940;2022-09-09T09:31:58;6.78;;;1.25;;
32321;SDS011;61553;48.994;8.940;2022-09-09T09:34:28;5.72;;;1.50;;
32321;SDS011;61553;48.994;8.940;2022-09-09T09:36:57;4.00;;;1.15;;
32321;SDS011;61553;48.994;8.940;2022-09-09T09:39:30;6.03;;;1.30;;
32321;SDS011;61553;48.994;8.940;2022-09-09T09:42:22;2.97;;;0.98;;
32321;SDS011;61553;48.994;8.940;2022-09-09T09:44:47;5.55;;;0.98;;
32321;SDS011;61553;48.994;8.940;2022-09-09T09:47:14;5.00;;;1.20;;
32321;SDS011;61553;48.994;8.940;2022-09-09T09:52:28;5.22;;;1.30;;
32321;SDS011;61553;48.994;8.940;2022-09-09T09:54:56;1.67;;;0.60;;
32321;SDS011;61553;48.994;8.940;2022-09-09T09:57:25;4.35;;;1.30;;
32321;SDS011;61553;48.994;8.940;2022-09-09T10:00:13;4.90;;;1.08;;
32321;SDS011;61553;48.994;8.940;2022-09-09T10:02:46;3.80;;;1.00;;
32321;SDS011;61553;48.994;8.940;2022-09-09T10:05:16;7.88;;;1.40;;
32321;SDS011;61553;48.994;8.940;2022-09-09T10:07:43;4.15;;;1.02;;
32321;SDS011;61553;48.994;8.940;2022-09-09T10:10:19;5.82;;;1.30;;
32321;SDS011;61553;48.994;8.940;2022-09-09T10:26:27;4.82;;;1.10;;
32321;SDS011;61553;48.994;8.940;2022-09-09T10:57:05;5.70;;;1.05;;
32321;SDS011;61553;48.994;8.940;2022-09-09T10:59:40;7.00;;;1.05;;
32321;SDS011;61553;48.994;8.940;2022-09-09T11:10:20;4.03;;;0.95;;
32321;SDS011;61553;48.994;8.940;2022-09-09T11:12:56;2.15;;;0.75;;
32321;SDS011;61553;48.994;8.940;2022-09-09T11:15:28;5.20;;;0.95;;
32321;SDS011;61553;48.994;8.940;2022-09-09T11:18:01;3.03;;;0.98;;
32321;SDS011;61553;48.994;8.940;2022-09-09T11:20:30;3.55;;;1.00;;
32321;SDS011;61553;48.994;8.940;2022-09-09T11:23:04;3.70;;;0.73;;
32321;SDS011;61553;48.994;8.940;2022-09-09T11:25:37;4.45;;;0.60;;
32321;SDS011;61553;48.994;8.940;2022-09-09T11:30:52;1.60;;;0.45;;
32321;SDS011;61553;48.994;8.940;2022-09-09T11:41:36;2.42;;;0.60;;
32321;SDS011;61553;48.994;8.940;2022-09-09T11:44:09;1.90;;;0.70;;
32321;SDS011;61553;48.994;8.940;2022-09-09T11:46:43;2.85;;;0.65;;
32321;SDS011;61553;48.994;8.940;2022-09-09T11:49:28;1.67;;;0.40;;
32321;SDS011;61553;48.994;8.940;2022-09-09T11:52:40;2.50;;;0.40;;
32321;SDS011;61553;48.994;8.940;2022-09-09T11:55:07;2.50;;;0.60;;
32321;SDS011;61553;48.994;8.940;2022-09-09T11:58:37;2.58;;;0.70;;
32321;SDS011;61553;48.994;8.940;2022-09-09T12:00:45;4.82;;;0.70;;
32321;SDS011;61553;48.994;8.940;2022-09-09T12:08:37;2.20;;;0.40;;
32321;SDS011;61553;48.994;8.940;2022-09-09T12:11:10;2.10;;;0.55;;
32321;SDS011;61553;48.994;8.940;2022-09-09T12:13:36;2.38;;;0.55;;
32321;SDS011;61553;48.994;8.940;2022-09-09T12:16:03;1.67;;;0.50;;
32321;SDS011;61553;48.994;8.940;2022-09-09T12:18:37;2.58;;;0.85;;
32321;SDS011;61553;48.994;8.940;2022-09-09T12:30:14;2.17;;;0.70;;
32321;SDS011;61553;48.994;8.940;2022-09-09T12:32:42;4.05;;;0.70;;
32321;SDS011;61553;48.994;8.940;2022-09-09T12:37:37;4.45;;;0.98;;
32321;SDS011;61553;48.994;8.940;2022-09-09T12:40:30;2.80;;;0.98;;
32321;SDS011;61553;48.994;8.940;2022-09-09T12:43:00;4.60;;;1.10;;
32321;SDS011;61553;48.994;8.940;2022-09-09T12:45:28;2.42;;;0.80;;
32321;SDS011;61553;48.994;8.940;2022-09-09T12:48:00;3.25;;;0.80;;
32321;SDS011;61553;48.994;8.940;2022-09-09T12:50:31;2.53;;;0.57;;
32321;SDS011;61553;48.994;8.940;2022-09-09T12:52:59;2.70;;;0.77;;
32321;SDS011;61553;48.994;8.940;2022-09-09T12:55:32;2.10;;;0.57;;
32321;SDS011;61553;48.994;8.940;2022-09-09T12:58:02;2.50;;;0.80;;
32321;SDS011;61553;48.994;8.940;2022-09-09T13:00:31;5.05;;;0.82;;
32321;SDS011;61553;48.994;8.940;2022-09-09T13:03:02;2.03;;;0.80;;
32321;SDS011;61553;48.994;8.940;2022-09-09T13:05:41;3.85;;;0.70;;
32321;SDS011;61553;48.994;8.940;2022-09-09T13:08:10;4.30;;;0.80;;
32321;SDS011;61553;48.994;8.940;2022-09-09T13:10:39;3.13;;;0.70;;
32321;SDS011;61553;48.994;8.940;2022-09-09T13:13:19;4.05;;;0.80;;
32321;SDS011;61553;48.994;8.940;2022-09-09T13:15:51;2.25;;;0.60;;
32321;SDS011;61553;48.994;8.940;2022-09-09T13:18:21;4.20;;;0.98;;
32321;SDS011;61553;48.994;8.940;2022-09-09T13:20:49;12.93;;;9.75;;
32321;SDS011;61553;48.994;8.940;2022-09-09T13:23:15;5.13;;;0.80;;
32321;SDS011;61553;48.994;8.940;2022-09-09T13:25:52;5.78;;;1.15;;
32321;SDS011;61553;48.994;8.940;2022-09-09T13:28:20;2.60;;;0.63;;
32321;SDS011;61553;48.994;8.940;2022-09-09T13:31:24;3.03;;;0.75;;
32321;SDS011;61553;48.994;8.940;2022-09-09T13:33:58;3.28;;;1.00;;
32321;SDS011;61553;48.994;8.940;2022-09-09T13:36:31;2.45;;;0.75;;
32321;SDS011;61553;48.994;8.940;2022-09-09T13:39:00;5.32;;;1.15;;
32321;SDS011;61553;48.994;8.940;2022-09-09T13:41:34;3.13;;;0.65;;
32321;SDS011;61553;48.994;8.940;2022-09-09T13:44:02;3.28;;;0.70;;
32321;SDS011;61553;48.994;8.940;2022-09-09T13:51:36;3.53;;;0.85;;
32321;SDS011;61553;48.994;8.940;2022-09-09T13:54:12;3.65;;;0.70;;
32321;SDS011;61553;48.994;8.940;2022-09-09T13:56:39;3.35;;;0.80;;
32321;SDS011;61553;48.994;8.940;2022-09-09T13:59:16;1.63;;;0.43;;
32321;SDS011;61553;48.994;8.940;2022-09-09T14:01:47;2.00;;;0.40;;
32321;SDS011;61553;48.994;8.940;2022-09-09T14:04:17;2.83;;;0.60;;
32321;SDS011;61553;48.994;8.940;2022-09-09T14:06:43;2.85;;;0.63;;
32321;SDS011;61553;48.994;8.940;2022-09-09T14:09:12;3.13;;;0.82;;
32321;SDS011;61553;48.994;8.940;2022-09-09T14:11:40;3.47;;;1.00;;
32321;SDS011;61553;48.994;8.940;2022-09-09T14:14:06;2.25;;;0.68;;
32321;SDS011;61553;48.994;8.940;2022-09-09T14:16:32;2.55;;;0.75;;
32321;SDS011;61553;48.994;8.940;2022-09-09T14:18:58;2.53;;;0.55;;
32321;SDS011;61553;48.994;8.940;2022-09-09T14:21:24;6.82;;;1.10;;
32321;SDS011;61553;48.994;8.940;2022-09-09T14:23:50;6.43;;;1.00;;
32321;SDS011;61553;48.994;8.940;2022-09-09T14:26:17;6.05;;;0.98;;
32321;SDS011;61553;48.994;8.940;2022-09-09T14:28:46;3.55;;;1.02;;
32321;SDS011;61553;48.994;8.940;2022-09-09T14:31:12;4.07;;;0.75;;
32321;SDS011;61553;48.994;8.940;2022-09-09T14:33:38;1.77;;;0.68;;
32321;SDS011;61553;48.994;8.940;2022-09-09T14:36:04;3.72;;;0.90;;
32321;SDS011;61553;48.994;8.940;2022-09-09T14:38:32;2.97;;;0.65;;
32321;SDS011;61553;48.994;8.940;2022-09-09T14:40:59;4.72;;;0.70;;
32321;SDS011;61553;48.994;8.940;2022-09-09T14:43:28;4.38;;;0.90;;
32321;SDS011;61553;48.994;8.940;2022-09-09T14:45:55;2.05;;;0.63;;
32321;SDS011;61553;48.994;8.940;2022-09-09T14:48:21;4.53;;;0.70;;
32321;SDS011;61553;48.994;8.940;2022-09-09T14:50:46;4.70;;;0.88;;
32321;SDS011;61553;48.994;8.940;2022-09-09T14:53:12;3.47;;;0.88;;
32321;SDS011;61553;48.994;8.940;2022-09-09T14:55:38;4.38;;;0.82;;
32321;SDS011;61553;48.994;8.940;2022-09-09T14:58:03;4.78;;;1.10;;
32321;SDS011;61553;48.994;8.940;2022-09-09T15:00:31;3.67;;;0.40;;
32321;SDS011;61553;48.994;8.940;2022-09-09T15:02:57;1.85;;;0.60;;
32321;SDS011;61553;48.994;8.940;2022-09-09T15:05:22;3.60;;;0.57;;
32321;SDS011;61553;48.994;8.940;2022-09-09T15:07:49;4.32;;;0.60;;
32321;SDS011;61553;48.994;8.940;2022-09-09T15:10:15;1.08;;;0.45;;
32321;SDS011;61553;48.994;8.940;2022-09-09T15:12:42;3.90;;;0.65;;
32321;SDS011;61553;48.994;8.940;2022-09-09T15:15:08;1.23;;;0.50;;
32321;SDS011;61553;48.994;8.940;2022-09-09T15:17:35;2.40;;;0.50;;
32321;SDS011;61553;48.994;8.940;2022-09-09T15:20:02;2.88;;;0.60;;
32321;SDS011;61553;48.994;8.940;2022-09-09T15:22:30;2.47;;;0.60;;
32321;SDS011;61553;48.994;8.940;2022-09-09T15:24:56;5.22;;;0.70;;
32321;SDS011;61553;48.994;8.940;2022-09-09T15:27:22;1.65;;;0.32;;
32321;SDS011;61553;48.994;8.940;2022-09-09T15:29:48;2.15;;;0.65;;
32321;SDS011;61553;48.994;8.940;2022-09-09T15:32:15;1.98;;;0.70;;
32321;SDS011;61553;48.994;8.940;2022-09-09T15:34:40;13.43;;;1.25;;
32321;SDS011;61553;48.994;8.940;2022-09-09T15:37:09;4.70;;;0.80;;
32321;SDS011;61553;48.994;8.940;2022-09-09T15:39:37;4.30;;;0.90;;
32321;SDS011;61553;48.994;8.940;2022-09-09T15:42:04;4.22;;;0.60;;
32321;SDS011;61553;48.994;8.940;2022-09-09T15:44:37;2.30;;;0.60;;
32321;SDS011;61553;48.994;8.940;2022-09-09T15:47:04;3.00;;;0.63;;
32321;SDS011;61553;48.994;8.940;2022-09-09T15:49:30;2.58;;;0.73;;
32321;SDS011;61553;48.994;8.940;2022-09-09T15:51:56;4.28;;;0.60;;
32321;SDS011;61553;48.994;8.940;2022-09-09T15:54:28;7.18;;;1.05;;
32321;SDS011;61553;48.994;8.940;2022-09-09T15:56:58;3.75;;;0.82;;
32321;SDS011;61553;48.994;8.940;2022-09-09T15:59:26;3.55;;;1.10;;
32321;SDS011;61553;48.994;8.940;2022-09-09T16:01:53;4.63;;;1.40;;
32321;SDS011;61553;48.994;8.940;2022-09-09T16:04:20;1.48;;;0.50;;
32321;SDS011;61553;48.994;8.940;2022-09-09T16:06:56;2.70;;;0.40;;
32321;SDS011;61553;48.994;8.940;2022-09-09T16:09:24;7.40;;;1.13;;
32321;SDS011;61553;48.994;8.940;2022-09-09T16:11:50;5.80;;;0.95;;
32321;SDS011;61553;48.994;8.940;2022-09-09T16:14:18;7.82;;;0.93;;
32321;SDS011;61553;48.994;8.940;2022-09-09T16:16:43;7.50;;;1.08;;
32321;SDS011;61553;48.994;8.940;2022-09-09T16:19:10;9.88;;;1.35;;
32321;SDS011;61553;48.994;8.940;2022-09-09T16:21:41;3.15;;;0.85;;
32321;SDS011;61553;48.994;8.940;2022-09-09T16:24:10;5.17;;;1.70;;
32321;SDS011;61553;48.994;8.940;2022-09-09T16:26:38;9.50;;;0.93;;
32321;SDS011;61553;48.994;8.940;2022-09-09T16:29:05;7.78;;;2.00;;
32321;SDS011;61553;48.994;8.940;2022-09-09T16:31:31;2.78;;;0.90;;
32321;SDS011;61553;48.994;8.940;2022-09-09T16:33:59;1.95;;;0.70;;
32321;SDS011;61553;48.994;8.940;2022-09-09T16:36:26;2.15;;;0.52;;
32321;SDS011;61553;48.994;8.940;2022-09-09T16:38:55;5.30;;;2.05;;
32321;SDS011;61553;48.994;8.940;2022-09-09T16:41:23;3.47;;;0.80;;
32321;SDS011;61553;48.994;8.940;2022-09-09T16:44:08;3.47;;;0.50;;
32321;SDS011;61553;48.994;8.940;2022-09-09T16:46:36;1.73;;;0.70;;
32321;SDS011;61553;48.994;8.940;2022-09-09T16:49:04;1.10;;;0.47;;
32321;SDS011;61553;48.994;8.940;2022-09-09T16:51:42;1.63;;;0.32;;
32321;SDS011;61553;48.994;8.940;2022-09-09T16:54:09;2.13;;;0.60;;
32321;SDS011;61553;48.994;8.940;2022-09-09T16:56:37;3.00;;;0.80;;
32321;SDS011;61553;48.994;8.940;2022-09-09T16:59:08;1.65;;;0.50;;
32321;SDS011;61553;48.994;8.940;2022-09-09T17:01:40;1.80;;;0.45;;
32321;SDS011;61553;48.994;8.940;2022-09-09T17:04:11;3.10;;;0.52;;
32321;SDS011;61553;48.994;8.940;2022-09-09T17:06:40;2.83;;;0.50;;
32321;SDS011;61553;48.994;8.940;2022-09-09T17:09:09;2.33;;;0.40;;
32321;SDS011;61553;48.994;8.940;2022-09-09T17:11:39;1.88;;;0.38;;
32321;SDS011;61553;48.994;8.940;2022-09-09T17:14:05;4.60;;;0.70;;
32321;SDS011;61553;48.994;8.940;2022-09-09T17:16:34;1.90;;;0.43;;
32321;SDS011;61553;48.994;8.940;2022-09-09T17:19:01;3.40;;;0.50;;
32321;SDS011;61553;48.994;8.940;2022-09-09T17:21:28;2.13;;;0.40;;
32321;SDS011;61553;48.994;8.940;2022-09-09T17:23:56;2.72;;;0.60;;
32321;SDS011;61553;48.994;8.940;2022-09-09T17:26:23;1.55;;;0.38;;
32321;SDS011;61553;48.994;8.940;2022-09-09T17:28:52;0.73;;;0.40;;
32321;SDS011;61553;48.994;8.940;2022-09-09T17:31:20;1.98;;;0.32;;
32321;SDS011;61553;48.994;8.940;2022-09-09T17:33:47;3.05;;;0.50;;
32321;SDS011;61553;48.994;8.940;2022-09-09T17:36:16;2.30;;;0.43;;
32321;SDS011;61553;48.994;8.940;2022-09-09T17:38:46;2.13;;;0.43;;
32321;SDS011;61553;48.994;8.940;2022-09-09T17:41:14;1.70;;;0.50;;
32321;SDS011;61553;48.994;8.940;2022-09-09T17:43:42;1.92;;;0.55;;
32321;SDS011;61553;48.994;8.940;2022-09-09T17:46:15;2.45;;;0.50;;
32321;SDS011;61553;48.994;8.940;2022-09-09T17:48:44;3.25;;;0.55;;
32321;SDS011;61553;48.994;8.940;2022-09-09T17:51:12;1.38;;;0.60;;
32321;SDS011;61553;48.994;8.940;2022-09-09T17:53:44;1.23;;;0.45;;